Time;durP1;ratioP1;P1;durP2;ratioP2;P2;SDS_P1;SDS_P2;PMS_P1;PMS_P2;Temp;Humidity;BMP_temperature;BMP_pressure;BME280_temperature;BME280_humidity;BME280_pressure;Samples;Min_cycle;Max_cycle;Signal;HPM_P1;HPM_P2
2022/04/19 00:01:23;;;;;;;6.50;3.80;;;5.60;55.00;;;;;;4993238;28;20455;-61
2022/04/19 00:03:48;;;;;;;4.87;3.80;;;5.50;55.00;;;;;;5006725;28;20230;-61
2022/04/19 00:06:14;;;;;;;4.53;3.70;;;5.50;55.10;;;;;;5007666;28;20172;-61
2022/04/19 00:08:40;;;;;;;3.57;3.23;;;5.50;55.20;;;;;;5008060;28;20184;-61
2022/04/19 00:11:05;;;;;;;6.20;4.03;;;5.40;55.20;;;;;;5005109;28;20255;-61
2022/04/19 00:13:32;;;;;;;4.80;4.17;;;5.40;55.30;;;;;;5011590;28;20248;-61
2022/04/19 00:15:58;;;;;;;7.33;3.50;;;5.40;55.50;;;;;;5007474;28;20632;-61
2022/04/19 00:18:25;;;;;;;4.37;3.73;;;5.30;55.60;;;;;;5008866;28;20437;-61
2022/04/19 00:20:50;;;;;;;6.13;3.97;;;5.30;55.60;;;;;;5007833;28;20435;-61
2022/04/19 00:23:16;;;;;;;5.90;4.20;;;5.30;55.70;;;;;;4977323;28;20475;-62
2022/04/19 00:25:43;;;;;;;5.37;4.20;;;5.20;55.70;;;;;;5006753;28;20211;-61
2022/04/19 00:28:10;;;;;;;5.70;3.90;;;5.20;55.70;;;;;;5008813;28;20463;-61
2022/04/19 00:30:36;;;;;;;4.43;3.67;;;5.20;55.80;;;;;;5010571;28;20439;-62
2022/04/19 00:33:02;;;;;;;5.03;3.50;;;5.10;55.80;;;;;;4994689;28;20462;-61
2022/04/19 00:35:28;;;;;;;7.27;3.27;;;5.10;55.80;;;;;;5007492;28;20188;-62
2022/04/19 00:37:54;;;;;;;11.87;4.10;;;5.10;55.90;;;;;;5009605;28;20511;-62
2022/04/19 00:40:20;;;;;;;6.60;3.70;;;5.00;56.00;;;;;;5010087;28;20176;-61
2022/04/19 00:42:47;;;;;;;5.40;3.97;;;5.00;56.10;;;;;;5009366;28;20853;-61
2022/04/19 00:45:13;;;;;;;3.67;3.37;;;5.00;56.10;;;;;;4986615;28;20842;-61
2022/04/19 00:47:39;;;;;;;4.00;3.40;;;5.00;56.20;;;;;;4989532;28;20947;-62
2022/04/19 00:50:06;;;;;;;5.27;3.53;;;4.90;56.20;;;;;;4994227;28;20427;-61
2022/04/19 00:52:34;;;;;;;7.10;3.30;;;4.90;56.40;;;;;;4992776;28;20189;-61
2022/04/19 00:55:02;;;;;;;3.90;3.20;;;4.80;56.40;;;;;;5000789;28;20416;-62
2022/04/19 00:57:28;;;;;;;4.33;3.63;;;4.80;56.60;;;;;;5003421;28;20790;-62
2022/04/19 00:59:55;;;;;;;5.27;3.33;;;4.70;56.60;;;;;;4992128;28;20418;-61
2022/04/19 01:02:22;;;;;;;4.83;3.20;;;4.70;56.70;;;;;;5003066;28;20432;-61
2022/04/19 01:04:49;;;;;;;3.87;3.40;;;4.70;56.90;;;;;;5003553;28;21069;-62
2022/04/19 01:07:19;;;;;;;5.97;3.80;;;4.60;56.90;;;;;;5009510;28;20533;-61
2022/04/19 01:09:46;;;;;;;6.90;3.33;;;4.60;57.00;;;;;;5008085;28;20436;-61
2022/04/19 01:15:01;;;;;;;4.03;3.43;;;4.60;57.20;;;;;;5001920;28;20510;-61
2022/04/19 01:17:27;;;;;;;5.37;3.60;;;4.50;57.20;;;;;;5006968;28;20432;-62
2022/04/19 01:19:54;;;;;;;5.13;3.33;;;4.50;57.50;;;;;;5002528;28;20426;-59
2022/04/19 01:22:19;;;;;;;4.13;3.73;;;4.40;57.70;;;;;;5016415;28;20300;-61
2022/04/19 01:24:45;;;;;;;6.80;3.83;;;4.40;57.70;;;;;;4997763;28;20549;-62
2022/04/19 01:27:13;;;;;;;4.83;3.37;;;4.40;57.60;;;;;;5010254;28;20665;-62
2022/04/19 01:29:39;;;;;;;4.80;3.83;;;4.30;57.70;;;;;;5000863;28;20177;-61
2022/04/19 01:32:06;;;;;;;5.17;3.80;;;4.30;57.80;;;;;;5008795;28;20579;-61
2022/04/19 01:34:32;;;;;;;6.73;3.77;;;4.30;57.90;;;;;;5001159;28;20426;-61
2022/04/19 01:36:58;;;;;;;5.37;3.97;;;4.20;57.80;;;;;;4994468;28;20436;-61
2022/04/19 01:42:09;;;;;;;5.80;3.60;;;4.20;58.10;;;;;;5008750;28;20434;-61
2022/04/19 01:44:36;;;;;;;4.60;3.77;;;4.20;58.10;;;;;;5008816;28;20864;-61
2022/04/19 01:47:02;;;;;;;3.77;3.37;;;4.20;58.40;;;;;;5007235;28;20437;-61
2022/04/19 01:49:28;;;;;;;4.20;3.60;;;4.10;58.30;;;;;;4992627;28;20884;-61
2022/04/19 01:51:53;;;;;;;4.13;3.50;;;4.20;58.40;;;;;;4990240;28;20539;-61
2022/04/19 01:54:19;;;;;;;7.60;4.40;;;4.20;58.40;;;;;;5005475;28;20657;-61
2022/04/19 01:56:45;;;;;;;4.77;3.63;;;4.10;58.30;;;;;;5001842;28;20271;-61
2022/04/19 01:59:11;;;;;;;5.43;3.40;;;4.10;58.40;;;;;;5006684;28;20173;-61
2022/04/19 02:01:37;;;;;;;4.63;3.40;;;4.00;58.40;;;;;;5004853;28;20200;-62
2022/04/19 02:04:03;;;;;;;6.13;3.37;;;4.00;58.60;;;;;;5005145;28;20463;-61
2022/04/19 02:06:30;;;;;;;3.80;3.40;;;3.90;58.70;;;;;;4997950;28;20179;-61
2022/04/19 02:08:56;;;;;;;3.90;3.47;;;3.90;58.90;;;;;;5000780;28;20446;-61
2022/04/19 02:11:24;;;;;;;3.43;3.13;;;3.80;59.00;;;;;;5009065;28;21014;-61
2022/04/19 02:13:51;;;;;;;3.97;3.10;;;3.80;59.10;;;;;;5003662;28;20952;-61
2022/04/19 02:16:17;;;;;;;6.83;3.33;;;3.80;59.40;;;;;;5007423;28;20431;-61
2022/04/19 02:18:43;;;;;;;6.50;3.80;;;3.80;59.60;;;;;;5005903;28;20442;-61
2022/04/19 02:21:09;;;;;;;8.80;3.53;;;3.70;59.60;;;;;;5004200;28;20814;-60
2022/04/19 02:23:35;;;;;;;3.60;3.30;;;3.70;59.60;;;;;;4999212;28;20200;-62
2022/04/19 02:26:02;;;;;;;3.70;3.40;;;3.70;59.80;;;;;;5005390;28;20489;-61
2022/04/19 02:28:28;;;;;;;5.00;3.47;;;3.70;60.10;;;;;;5008125;28;20678;-60
2022/04/19 02:30:55;;;;;;;4.63;3.90;;;3.60;60.30;;;;;;5006871;28;20440;-63
2022/04/19 02:33:21;;;;;;;4.10;3.67;;;3.60;60.50;;;;;;5006144;28;20459;-60
2022/04/19 02:35:46;;;;;;;4.30;3.53;;;3.60;60.60;;;;;;5003419;28;20464;-60
2022/04/19 02:38:13;;;;;;;4.90;3.50;;;3.50;60.80;;;;;;5004875;28;20626;-61
2022/04/19 02:40:38;;;;;;;3.93;3.53;;;3.50;61.10;;;;;;5008272;28;20184;-61
2022/04/19 02:43:04;;;;;;;4.23;3.83;;;3.50;61.40;;;;;;5000902;28;20513;-61
2022/04/19 02:45:30;;;;;;;7.43;3.50;;;3.40;61.50;;;;;;4990579;28;20720;-61
2022/04/19 02:48:04;;;;;;;4.73;3.83;;;3.40;61.30;;;;;;5000325;28;20169;-62
2022/04/19 02:50:33;;;;;;;4.47;3.90;;;3.40;61.50;;;;;;5000218;28;20204;-61
2022/04/19 02:53:03;;;;;;;5.73;3.90;;;3.40;61.80;;;;;;4999575;28;20450;-61
2022/04/19 02:55:28;;;;;;;3.93;3.53;;;3.40;63.00;;;;;;5006457;28;20427;-61
2022/04/19 02:57:55;;;;;;;5.03;4.07;;;3.40;62.80;;;;;;5008405;28;20947;-62
2022/04/19 03:00:20;;;;;;;5.97;3.67;;;3.40;63.00;;;;;;4988802;28;20588;-61
2022/04/19 03:02:49;;;;;;;6.57;3.87;;;3.40;62.80;;;;;;5005677;28;20478;-62
2022/04/19 03:05:16;;;;;;;9.20;4.43;;;3.30;63.20;;;;;;5004474;28;20388;-61
2022/04/19 03:07:41;;;;;;;6.43;4.03;;;3.30;63.60;;;;;;5004772;28;20967;-61
2022/04/19 03:10:08;;;;;;;4.87;3.53;;;3.30;63.70;;;;;;4997952;28;20431;-61
2022/04/19 03:12:33;;;;;;;3.83;3.40;;;3.30;63.60;;;;;;5008299;28;20200;-61
2022/04/19 03:15:00;;;;;;;4.73;3.77;;;3.30;63.60;;;;;;5010140;28;20436;-61
2022/04/19 03:17:26;;;;;;;3.67;3.33;;;3.30;63.60;;;;;;5008463;28;20180;-60
2022/04/19 03:19:52;;;;;;;5.07;3.83;;;3.20;63.30;;;;;;5009036;28;20522;-61
2022/04/19 03:22:18;;;;;;;5.07;4.00;;;3.20;63.70;;;;;;5006655;28;20559;-62
2022/04/19 03:27:43;;;;;;;6.60;3.90;;;3.00;64.10;;;;;;5008348;28;20953;-61
2022/04/19 03:30:14;;;;;;;5.13;4.17;;;3.00;64.60;;;;;;5009125;28;20923;-62
2022/04/19 03:32:42;;;;;;;4.40;3.40;;;3.00;64.60;;;;;;5012918;28;20476;-61
2022/04/19 03:35:08;;;;;;;4.27;3.87;;;3.00;65.10;;;;;;5007001;28;20417;-61
2022/04/19 03:37:34;;;;;;;5.33;4.30;;;2.90;65.60;;;;;;5006218;28;20468;-61
2022/04/19 03:40:00;;;;;;;5.17;4.20;;;2.90;66.30;;;;;;5009927;28;20515;-61
2022/04/19 03:42:25;;;;;;;6.13;4.07;;;2.90;66.50;;;;;;5011553;28;20283;-61
2022/04/19 03:44:51;;;;;;;3.67;3.23;;;2.80;66.90;;;;;;5012253;28;20951;-62
2022/04/19 03:47:17;;;;;;;4.63;3.87;;;2.80;66.80;;;;;;5008651;28;20613;-64
2022/04/19 03:49:43;;;;;;;5.30;3.80;;;2.80;67.10;;;;;;5009880;28;20538;-62
2022/04/19 03:52:09;;;;;;;8.83;4.30;;;2.80;67.40;;;;;;5006381;28;20446;-62
2022/04/19 03:54:35;;;;;;;7.63;4.10;;;2.80;68.00;;;;;;4995645;28;20174;-62
2022/04/19 03:57:07;;;;;;;6.30;4.27;;;2.80;68.50;;;;;;5003194;28;20932;-61
2022/04/19 03:59:39;;;;;;;7.90;3.73;;;2.80;68.60;;;;;;5006336;28;20526;-62
2022/04/19 04:02:06;;;;;;;4.83;3.93;;;2.80;68.60;;;;;;5009342;28;20451;-62
2022/04/19 04:04:32;;;;;;;6.17;3.90;;;2.70;68.30;;;;;;5004888;28;20455;-62
2022/04/19 04:06:58;;;;;;;5.57;3.40;;;2.70;68.30;;;;;;5000919;28;20809;-61
2022/04/19 04:09:25;;;;;;;5.77;4.10;;;2.70;68.30;;;;;;5005371;28;20427;-59
2022/04/19 04:11:51;;;;;;;9.57;3.67;;;2.70;68.40;;;;;;5002379;28;20550;-58
2022/04/19 04:14:16;;;;;;;5.53;3.83;;;2.70;68.80;;;;;;5002277;28;20456;-60
2022/04/19 04:16:42;;;;;;;5.80;4.03;;;2.60;69.30;;;;;;5003148;28;21191;-61
2022/04/19 04:19:08;;;;;;;10.30;4.33;;;2.60;69.50;;;;;;4990753;28;20187;-61
2022/04/19 04:21:33;;;;;;;6.90;4.97;;;2.60;69.70;;;;;;4981776;28;20215;-57
2022/04/19 04:23:59;;;;;;;5.50;4.30;;;2.60;70.00;;;;;;5000320;28;20239;-61
2022/04/19 04:26:25;;;;;;;7.47;4.03;;;2.60;70.00;;;;;;5006174;28;20263;-62
2022/04/19 04:28:50;;;;;;;12.00;4.30;;;2.70;70.30;;;;;;4998017;28;20184;-60
2022/04/19 04:31:16;;;;;;;5.47;4.10;;;2.60;70.00;;;;;;5007879;28;20267;-61
2022/04/19 04:33:41;;;;;;;6.50;4.13;;;2.60;70.00;;;;;;5004711;28;20667;-61
2022/04/19 04:36:07;;;;;;;7.47;4.37;;;2.60;69.80;;;;;;5001956;28;20190;-60
2022/04/19 04:38:33;;;;;;;6.60;4.20;;;2.60;70.80;;;;;;5004753;28;20245;-61
2022/04/19 04:40:58;;;;;;;6.47;4.60;;;2.50;70.90;;;;;;5005265;28;20189;-60
2022/04/19 04:43:24;;;;;;;10.33;5.00;;;2.60;71.70;;;;;;5002504;28;20739;-61
2022/04/19 04:49:35;;;;;;;10.57;4.23;;;2.50;72.00;;;;;;4999644;28;20815;-60
2022/04/19 04:51:19;;;;;;;9.13;4.60;;;2.50;72.50;;;;;;4998257;28;21001;-60
2022/04/19 04:53:45;;;;;;;4.27;3.87;;;2.50;72.00;;;;;;5003439;28;20446;-60
2022/04/19 04:56:10;;;;;;;7.30;4.40;;;2.50;72.50;;;;;;5002216;28;20208;-60
2022/04/19 04:58:36;;;;;;;6.63;4.30;;;2.50;72.20;;;;;;4990269;28;20180;-61
2022/04/19 05:01:02;;;;;;;6.47;4.17;;;2.50;72.00;;;;;;4984618;28;20192;-60
2022/04/19 05:03:27;;;;;;;5.07;4.30;;;2.50;73.30;;;;;;5004607;28;20890;-61
2022/04/19 05:05:53;;;;;;;8.07;4.70;;;2.50;73.20;;;;;;5006103;28;20176;-61
2022/04/19 05:08:19;;;;;;;7.07;4.93;;;2.50;73.20;;;;;;5010190;28;20600;-59
2022/04/19 05:10:44;;;;;;;7.27;4.57;;;2.40;73.70;;;;;;5009741;28;20225;-61
2022/04/19 05:13:10;;;;;;;6.40;4.80;;;2.50;74.80;;;;;;5006304;28;20192;-60
2022/04/19 05:15:36;;;;;;;5.80;4.63;;;2.50;74.30;;;;;;5008881;28;20184;-60
2022/04/19 05:18:01;;;;;;;7.03;4.30;;;2.40;75.10;;;;;;5012539;28;20237;-60
2022/04/19 05:20:27;;;;;;;4.47;3.87;;;2.50;75.10;;;;;;5008087;28;20187;-60
2022/04/19 05:22:52;;;;;;;5.73;4.13;;;2.50;75.20;;;;;;5006575;28;20291;-59
2022/04/19 05:25:18;;;;;;;4.33;3.90;;;2.60;75.50;;;;;;5009040;28;20172;-60
2022/04/19 05:27:44;;;;;;;9.27;4.30;;;2.70;76.20;;;;;;5008268;28;20229;-60
2022/04/19 05:30:10;;;;;;;6.33;4.20;;;2.80;75.70;;;;;;5005199;28;20606;-60
2022/04/19 05:32:35;;;;;;;7.50;4.67;;;2.90;75.40;;;;;;4990654;28;20750;-60
2022/04/19 05:35:01;;;;;;;5.93;4.30;;;3.00;74.30;;;;;;5007653;28;20811;-60
2022/04/19 05:37:27;;;;;;;7.13;4.70;;;3.10;72.60;;;;;;5006408;28;20192;-60
2022/04/19 05:39:52;;;;;;;6.63;4.53;;;3.20;72.30;;;;;;5004099;28;20272;-60
2022/04/19 05:42:18;;;;;;;5.57;4.00;;;3.30;71.00;;;;;;4993104;28;20194;-60
2022/04/19 05:44:44;;;;;;;7.20;4.27;;;3.30;71.10;;;;;;4999678;28;20688;-60
2022/04/19 05:47:09;;;;;;;7.30;4.77;;;3.40;71.30;;;;;;5006305;28;20179;-60
2022/04/19 05:49:35;;;;;;;6.80;4.43;;;3.40;70.30;;;;;;4990165;28;20310;-59
2022/04/19 05:52:02;;;;;;;5.50;4.60;;;3.40;69.20;;;;;;5008050;28;20673;-60
2022/04/19 05:54:27;;;;;;;8.40;4.43;;;3.40;70.00;;;;;;5006507;28;20184;-59
2022/04/19 05:56:53;;;;;;;6.33;4.60;;;3.40;71.90;;;;;;5008106;28;20426;-60
2022/04/19 05:59:19;;;;;;;8.60;4.50;;;3.40;71.70;;;;;;5009814;28;20839;-60
2022/04/19 06:07:13;;;;;;;8.80;4.90;;;3.50;70.80;;;;;;5006153;28;20446;-61
2022/04/19 06:09:38;;;;;;;9.93;4.70;;;3.60;70.00;;;;;;5009418;28;20462;-60
2022/04/19 06:12:04;;;;;;;9.07;6.10;;;3.70;68.20;;;;;;5005208;28;20199;-60
2022/04/19 06:14:30;;;;;;;14.10;6.83;;;3.70;68.00;;;;;;5006477;28;20177;-59
2022/04/19 06:16:56;;;;;;;7.67;5.50;;;3.80;68.10;;;;;;5004535;28;20441;-59
2022/04/19 06:19:22;;;;;;;7.70;5.03;;;3.90;68.50;;;;;;5008585;28;20180;-59
2022/04/19 06:21:48;;;;;;;4.90;4.23;;;4.00;68.20;;;;;;5022194;28;20948;-59
2022/04/19 06:24:14;;;;;;;16.93;4.70;;;4.10;67.50;;;;;;4992046;28;20463;-60
2022/04/19 06:26:39;;;;;;;11.10;5.80;;;4.30;67.50;;;;;;5006589;28;20430;-59
2022/04/19 06:29:06;;;;;;;11.70;5.83;;;4.30;66.60;;;;;;5017744;28;20169;-59
2022/04/19 06:31:32;;;;;;;11.00;6.10;;;4.50;66.60;;;;;;5005423;28;20658;-58
2022/04/19 06:33:58;;;;;;;5.63;5.03;;;4.60;66.40;;;;;;5005386;28;20447;-59
2022/04/19 06:36:24;;;;;;;7.40;5.10;;;4.70;66.20;;;;;;5007824;28;20423;-59
2022/04/19 06:38:49;;;;;;;10.27;5.17;;;4.80;65.30;;;;;;5008538;28;20243;-60
2022/04/19 06:41:15;;;;;;;6.53;4.37;;;4.90;64.90;;;;;;5006501;28;20180;-59
2022/04/19 06:43:41;;;;;;;11.63;5.00;;;4.90;65.50;;;;;;5010426;28;20196;-59
2022/04/19 06:46:08;;;;;;;5.43;4.13;;;5.10;65.00;;;;;;5009988;28;20656;-60
2022/04/19 06:48:34;;;;;;;7.43;4.60;;;5.20;65.30;;;;;;5009526;28;20255;-60
2022/04/19 06:51:04;;;;;;;5.43;4.30;;;5.30;64.10;;;;;;5000767;28;20423;-61
2022/04/19 06:53:30;;;;;;;10.10;4.80;;;5.40;63.70;;;;;;5013191;28;20422;-61
2022/04/19 06:55:58;;;;;;;17.03;5.30;;;5.60;63.20;;;;;;5009488;28;20439;-61
2022/04/19 06:58:24;;;;;;;9.73;4.83;;;5.70;62.00;;;;;;5004653;28;20867;-60
2022/04/19 07:00:50;;;;;;;10.10;5.30;;;5.80;61.40;;;;;;5008544;28;20467;-60
2022/04/19 07:03:16;;;;;;;9.03;5.33;;;5.90;61.40;;;;;;5010355;28;20235;-60
2022/04/19 07:05:42;;;;;;;12.03;5.87;;;6.00;61.10;;;;;;5000673;28;20451;-60
2022/04/19 07:08:07;;;;;;;10.80;5.60;;;6.10;61.60;;;;;;4993797;28;20416;-60
2022/04/19 07:10:36;;;;;;;10.23;5.77;;;6.20;61.20;;;;;;4993589;28;20216;-59
2022/04/19 07:13:03;;;;;;;8.73;4.70;;;6.40;61.10;;;;;;4996039;28;20572;-59
2022/04/19 07:15:29;;;;;;;6.23;5.07;;;6.50;60.70;;;;;;5002333;28;20415;-60
2022/04/19 07:17:54;;;;;;;6.73;4.43;;;6.60;60.20;;;;;;5013173;28;20526;-60
2022/04/19 07:28:36;;;;;;;9.80;4.67;;;7.30;59.20;;;;;;4996136;28;20459;-60
2022/04/19 07:31:05;;;;;;;10.27;5.00;;;7.40;58.90;;;;;;5007392;28;20482;-60
2022/04/19 07:33:32;;;;;;;8.80;5.20;;;7.60;58.90;;;;;;5012749;28;20450;-60
2022/04/19 07:35:57;;;;;;;10.63;5.00;;;7.80;58.10;;;;;;5010457;28;20499;-60
2022/04/19 07:38:23;;;;;;;8.30;5.20;;;7.90;57.80;;;;;;4999924;28;20458;-60
2022/04/19 07:40:50;;;;;;;7.07;5.00;;;8.00;56.70;;;;;;4998068;28;20192;-60
2022/04/19 07:43:16;;;;;;;6.77;4.90;;;8.10;55.60;;;;;;5000584;28;20255;-61
2022/04/19 07:45:42;;;;;;;5.33;4.40;;;8.20;55.90;;;;;;5004281;28;20436;-61
2022/04/19 07:48:07;;;;;;;6.43;4.90;;;8.30;56.40;;;;;;5011810;28;20556;-60
2022/04/19 07:50:34;;;;;;;7.80;5.50;;;8.50;56.20;;;;;;4998832;28;20740;-60
2022/04/19 07:53:00;;;;;;;14.40;5.10;;;8.60;55.70;;;;;;5002395;28;20287;-61
2022/04/19 07:55:27;;;;;;;6.50;4.80;;;8.80;55.50;;;;;;5003049;28;20420;-60
2022/04/19 07:57:53;;;;;;;9.03;4.90;;;9.00;55.60;;;;;;4994290;28;20446;-61
2022/04/19 08:00:19;;;;;;;7.40;4.77;;;9.10;54.70;;;;;;5005498;28;21002;-60
2022/04/19 08:02:46;;;;;;;8.10;5.13;;;9.20;53.80;;;;;;4988692;28;20458;-60
2022/04/19 08:05:12;;;;;;;9.47;4.50;;;9.30;53.70;;;;;;4994262;28;20490;-61
2022/04/19 08:07:37;;;;;;;9.20;4.63;;;9.40;53.70;;;;;;4992060;28;20920;-60
2022/04/19 08:10:04;;;;;;;9.57;5.07;;;9.60;53.60;;;;;;5007627;28;20208;-60
2022/04/19 08:12:31;;;;;;;6.07;4.50;;;9.80;53.80;;;;;;5006090;28;20201;-61
2022/04/19 08:14:57;;;;;;;11.40;4.97;;;10.00;52.70;;;;;;5000625;28;20440;-60
2022/04/19 08:17:23;;;;;;;8.90;5.03;;;10.10;51.70;;;;;;5001830;28;20847;-61
2022/04/19 08:19:48;;;;;;;8.10;4.77;;;10.30;50.60;;;;;;5004761;28;20549;-60
2022/04/19 08:22:16;;;;;;;7.20;4.30;;;10.50;50.20;;;;;;4994271;28;20241;-61
2022/04/19 08:24:42;;;;;;;5.13;4.10;;;10.70;49.40;;;;;;4987735;28;20753;-61
2022/04/19 08:27:07;;;;;;;5.83;3.97;;;10.90;48.20;;;;;;5003427;28;21229;-61
2022/04/19 08:29:33;;;;;;;6.43;4.17;;;11.10;46.30;;;;;;5003623;28;20454;-61
2022/04/19 08:31:59;;;;;;;8.73;4.10;;;11.30;45.80;;;;;;5005711;28;20211;-60
2022/04/19 08:34:24;;;;;;;15.13;4.63;;;11.50;45.40;;;;;;4992867;28;20219;-60
2022/04/19 08:36:50;;;;;;;5.80;4.30;;;11.70;44.60;;;;;;4999539;28;20188;-61
2022/04/19 08:39:16;;;;;;;4.80;3.57;;;11.80;44.20;;;;;;4990631;28;20191;-60
2022/04/19 08:41:42;;;;;;;5.93;3.50;;;12.00;43.50;;;;;;5004589;28;20287;-60
2022/04/19 08:44:08;;;;;;;10.50;4.30;;;12.10;43.60;;;;;;4995104;28;20678;-61
2022/04/19 08:46:38;;;;;;;5.37;4.30;;;12.30;43.60;;;;;;5000855;28;20420;-61
2022/04/19 08:49:04;;;;;;;8.77;4.93;;;12.50;43.80;;;;;;4999511;28;21133;-61
2022/04/19 08:51:34;;;;;;;4.97;3.90;;;12.70;43.30;;;;;;5002066;28;20529;-60
2022/04/19 08:59:30;;;;;;;6.13;4.17;;;13.30;42.20;;;;;;4998871;28;20430;-60
2022/04/19 09:01:57;;;;;;;6.30;4.47;;;13.50;42.00;;;;;;4991885;28;20579;-59
2022/04/19 09:04:23;;;;;;;19.33;4.87;;;13.70;41.90;;;;;;4998992;28;20467;-60
2022/04/19 09:06:58;;;;;;;8.37;4.40;;;13.90;40.60;;;;;;4997905;28;20903;-61
2022/04/19 09:09:29;;;;;;;9.60;3.70;;;14.00;40.70;;;;;;4997379;28;20195;-61
2022/04/19 09:12:07;;;;;;;7.03;4.27;;;14.20;40.60;;;;;;4999676;28;20542;-60
2022/04/19 09:14:32;;;;;;;5.77;4.03;;;14.30;40.20;;;;;;4984211;28;20521;-61
2022/04/19 09:17:06;;;;;;;7.93;4.17;;;14.40;39.50;;;;;;4999757;28;20542;-61
2022/04/19 09:19:32;;;;;;;8.27;4.30;;;14.50;39.30;;;;;;4985541;28;20191;-61
2022/04/19 09:21:58;;;;;;;8.00;4.00;;;14.60;39.00;;;;;;4998205;28;20471;-61
2022/04/19 09:24:28;;;;;;;4.63;3.90;;;14.80;39.00;;;;;;4993051;28;20673;-60
2022/04/19 09:26:54;;;;;;;5.60;3.97;;;14.90;39.00;;;;;;4999169;28;20467;-61
2022/04/19 09:29:25;;;;;;;8.20;3.43;;;15.10;38.80;;;;;;5001359;28;20462;-61
2022/04/19 09:31:58;;;;;;;6.00;3.80;;;15.20;38.60;;;;;;4980658;28;20452;-60
2022/04/19 09:34:30;;;;;;;9.50;3.77;;;15.20;37.20;;;;;;4999499;28;20489;-60
2022/04/19 09:37:12;;;;;;;5.30;4.10;;;15.30;37.50;;;;;;4995773;28;20474;-61
2022/04/19 09:39:39;;;;;;;5.47;3.53;;;15.40;36.50;;;;;;4997221;28;20443;-60
2022/04/19 09:42:13;;;;;;;5.43;2.80;;;15.30;37.90;;;;;;4992810;28;20467;-60
2022/04/19 09:44:41;;;;;;;6.67;3.50;;;15.40;39.00;;;;;;4997362;28;20462;-60
2022/04/19 09:47:08;;;;;;;4.63;3.33;;;15.50;39.20;;;;;;4997983;28;20510;-61
2022/04/19 09:49:53;;;;;;;12.43;3.77;;;15.70;38.50;;;;;;4998918;28;20487;-60
2022/04/19 09:52:21;;;;;;;5.20;3.50;;;15.80;38.30;;;;;;4999968;28;20536;-62
2022/04/19 09:55:08;;;;;;;3.83;3.30;;;15.80;37.90;;;;;;4997743;28;20491;-60
2022/04/19 09:57:38;;;;;;;3.97;3.07;;;16.00;38.40;;;;;;4999266;28;20823;-61
2022/04/19 10:00:13;;;;;;;4.80;3.07;;;16.10;37.90;;;;;;4993911;28;20470;-61
2022/04/19 10:08:19;;;;;;;10.60;3.67;;;16.30;37.70;;;;;;4996826;28;20430;-58
2022/04/19 10:10:47;;;;;;;5.37;3.80;;;16.40;35.50;;;;;;4997823;28;20453;-58
2022/04/19 10:13:13;;;;;;;4.70;3.40;;;16.40;37.00;;;;;;4996042;28;20464;-58
2022/04/19 10:15:40;;;;;;;5.77;2.93;;;16.50;37.70;;;;;;4994286;28;20938;-58
2022/04/19 10:18:07;;;;;;;3.30;2.90;;;16.60;36.60;;;;;;4995864;28;20431;-60
2022/04/19 10:20:45;;;;;;;5.80;3.03;;;16.70;37.70;;;;;;4997413;28;20415;-59
2022/04/19 10:23:11;;;;;;;6.37;3.20;;;16.80;37.10;;;;;;4993353;28;20466;-60
2022/04/19 10:25:40;;;;;;;4.90;2.80;;;16.90;36.40;;;;;;4995466;28;20463;-60
2022/04/19 10:28:08;;;;;;;4.50;3.20;;;17.00;36.30;;;;;;4994544;28;20493;-60
2022/04/19 10:30:36;;;;;;;5.47;2.90;;;17.10;35.60;;;;;;4989609;28;21301;-61
2022/04/19 10:33:21;;;;;;;3.23;2.40;;;17.10;34.40;;;;;;4991540;28;20456;-61
2022/04/19 10:36:12;;;;;;;6.63;2.83;;;17.10;34.90;;;;;;4978513;28;21060;-61
2022/04/19 10:38:38;;;;;;;5.10;3.07;;;17.00;32.10;;;;;;4992944;28;20972;-61
2022/04/19 10:41:04;;;;;;;3.23;2.73;;;16.90;32.60;;;;;;4997570;28;20445;-60
2022/04/19 10:43:30;;;;;;;3.00;2.50;;;16.90;31.50;;;;;;4997469;28;20208;-60
2022/04/19 10:46:19;;;;;;;2.90;2.37;;;16.80;31.60;;;;;;4992115;28;20172;-60
2022/04/19 10:49:23;;;;;;;4.50;2.47;;;16.80;32.90;;;;;;4979471;28;20442;-60
2022/04/19 10:51:50;;;;;;;2.20;2.00;;;17.00;31.10;;;;;;4995852;28;20457;-61
2022/04/19 10:54:16;;;;;;;3.27;2.23;;;17.00;30.00;;;;;;4994922;28;20431;-61
2022/04/19 10:58:05;;;;;;;2.70;1.80;;;17.00;31.00;;;;;;4998267;28;21129;-60
2022/04/19 11:00:01;;;;;;;2.30;1.70;;;17.20;30.70;;;;;;4981459;28;20495;-61
2022/04/19 11:02:36;;;;;;;2.37;1.87;;;17.40;31.70;;;;;;4998922;28;20459;-61
2022/04/19 11:05:03;;;;;;;3.37;1.80;;;17.60;30.50;;;;;;4995777;28;20505;-61
2022/04/19 11:07:42;;;;;;;4.67;2.27;;;17.70;29.90;;;;;;4994754;28;20466;-60
2022/04/19 11:10:07;;;;;;;5.63;1.70;;;17.90;30.80;;;;;;4996858;28;20435;-60
2022/04/19 11:12:58;;;;;;;2.10;1.80;;;18.10;30.60;;;;;;4996999;28;21044;-60
2022/04/19 11:15:37;;;;;;;7.43;2.23;;;18.20;31.20;;;;;;4995601;28;20259;-62
2022/04/19 11:18:22;;;;;;;2.50;1.90;;;18.40;29.60;;;;;;4990353;28;20891;-60
2022/04/19 11:20:58;;;;;;;1.80;1.70;;;18.50;29.80;;;;;;4995771;28;20446;-61
2022/04/19 11:23:25;;;;;;;2.37;1.80;;;18.60;31.80;;;;;;4981811;28;20565;-60
2022/04/19 11:25:53;;;;;;;3.50;2.33;;;18.70;30.20;;;;;;4995405;28;20443;-60
2022/04/19 11:28:30;;;;;;;4.50;1.60;;;18.80;28.90;;;;;;4995978;28;20526;-60
2022/04/19 11:30:55;;;;;;;2.27;1.60;;;18.70;29.50;;;;;;4995721;28;20471;-60
2022/04/19 11:33:28;;;;;;;2.20;1.80;;;18.80;30.40;;;;;;4994452;28;20786;-56
2022/04/19 11:36:09;;;;;;;2.10;1.60;;;18.90;30.00;;;;;;4996039;28;20263;-57
2022/04/19 11:38:44;;;;;;;1.90;1.50;;;19.00;30.40;;;;;;4994291;28;20937;-60
2022/04/19 11:46:44;;;;;;;1.67;1.57;;;19.30;28.10;;;;;;5000627;28;20461;-59
2022/04/19 11:49:19;;;;;;;1.50;1.40;;;19.20;27.20;;;;;;5000286;28;20461;-57
2022/04/19 11:51:46;;;;;;;3.00;1.60;;;19.20;27.50;;;;;;4997552;28;20458;-60
2022/04/19 11:54:32;;;;;;;2.60;1.37;;;19.30;28.60;;;;;;4997382;28;20457;-60
2022/04/19 11:57:01;;;;;;;3.07;1.60;;;19.40;28.40;;;;;;4996269;28;20526;-60
2022/04/19 11:59:39;;;;;;;1.83;1.40;;;19.60;28.20;;;;;;4996906;28;20979;-60
2022/04/19 12:02:18;;;;;;;1.57;1.30;;;19.70;28.90;;;;;;4978372;28;20455;-58
2022/04/19 12:04:59;;;;;;;5.83;1.83;;;19.90;29.50;;;;;;4994605;28;20474;-59
2022/04/19 12:07:25;;;;;;;1.70;1.60;;;20.20;31.50;;;;;;4998627;28;20486;-60
2022/04/19 12:09:52;;;;;;;2.70;1.47;;;20.40;29.90;;;;;;4999988;28;20439;-58
2022/04/19 12:12:19;;;;;;;5.40;1.80;;;20.40;29.60;;;;;;5000017;28;20593;-59
2022/04/19 12:14:52;;;;;;;2.60;1.30;;;20.50;28.70;;;;;;4997238;28;20505;-60
2022/04/19 12:17:22;;;;;;;2.90;1.50;;;20.60;28.20;;;;;;4995816;28;20436;-59
2022/04/19 12:19:59;;;;;;;1.60;1.50;;;20.70;29.20;;;;;;4997308;28;20455;-58
2022/04/19 12:22:25;;;;;;;1.43;1.30;;;20.90;29.80;;;;;;5000080;28;20886;-59
2022/04/19 12:24:55;;;;;;;4.37;1.60;;;21.00;28.10;;;;;;4994952;28;20479;-59
2022/04/19 12:27:32;;;;;;;1.87;1.50;;;21.00;29.20;;;;;;4996291;28;20200;-59
2022/04/19 12:30:12;;;;;;;8.87;1.57;;;21.10;28.60;;;;;;4993505;28;20443;-59
2022/04/19 12:32:55;;;;;;;1.47;1.37;;;21.20;29.20;;;;;;4997289;28;20443;-59
2022/04/19 12:35:39;;;;;;;1.50;1.33;;;21.30;28.40;;;;;;4994935;28;20539;-60
2022/04/19 12:38:18;;;;;;;4.27;1.67;;;21.30;28.90;;;;;;4993856;28;20477;-59
2022/04/19 12:40:45;;;;;;;1.60;1.40;;;21.40;28.60;;;;;;4995899;28;20455;-59
2022/04/19 12:43:15;;;;;;;1.60;1.50;;;21.60;28.70;;;;;;4994779;28;20463;-57
2022/04/19 12:45:41;;;;;;;3.07;1.53;;;21.70;28.30;;;;;;4991024;28;20518;-59
2022/04/19 12:48:20;;;;;;;1.70;1.60;;;21.80;28.30;;;;;;5004852;28;20403;-60
2022/04/19 12:50:46;;;;;;;1.60;1.50;;;21.90;27.00;;;;;;4988619;28;20260;-59
2022/04/19 12:53:22;;;;;;;3.70;1.80;;;22.00;27.00;;;;;;4990531;28;20948;-59
2022/04/19 12:56:38;;;;;;;2.00;1.70;;;22.00;27.50;;;;;;4992988;28;20416;-59
2022/04/19 12:59:03;;;;;;;1.50;1.40;;;22.00;27.20;;;;;;5006402;28;20419;-60
2022/04/19 13:01:29;;;;;;;3.17;2.50;;;22.10;27.60;;;;;;5006501;28;21185;-60
2022/04/19 13:03:55;;;;;;;5.70;1.93;;;22.30;27.50;;;;;;5002996;28;20232;-59
2022/04/19 13:14:33;;;;;;;8.13;1.60;;;22.60;27.80;;;;;;5007203;28;20893;-59
2022/04/19 13:16:59;;;;;;;1.70;1.60;;;22.80;27.30;;;;;;5013077;28;20439;-59
2022/04/19 13:19:25;;;;;;;1.77;1.67;;;22.90;27.50;;;;;;5004894;28;20553;-60
2022/04/19 13:21:51;;;;;;;1.50;1.20;;;23.00;27.50;;;;;;5003053;28;20223;-60
2022/04/19 13:24:16;;;;;;;1.50;1.30;;;23.00;27.50;;;;;;4998224;28;21010;-60
2022/04/19 13:26:42;;;;;;;3.27;1.50;;;23.10;26.50;;;;;;4987170;28;20173;-59
2022/04/19 13:29:08;;;;;;;2.20;1.70;;;23.10;27.10;;;;;;4990272;28;20634;-59
2022/04/19 13:31:34;;;;;;;1.57;1.20;;;23.20;27.30;;;;;;5011096;28;20191;-59
2022/04/19 13:33:59;;;;;;;1.40;1.30;;;23.30;27.20;;;;;;5003555;28;20964;-59
2022/04/19 13:36:25;;;;;;;1.50;1.30;;;23.40;28.10;;;;;;4992012;28;20613;-59
2022/04/19 13:38:51;;;;;;;2.60;1.60;;;23.60;27.00;;;;;;5001717;28;20188;-60
2022/04/19 13:41:16;;;;;;;4.60;1.50;;;23.70;26.70;;;;;;5007184;28;20717;-59
2022/04/19 13:43:42;;;;;;;1.47;1.37;;;23.70;26.10;;;;;;4992728;28;20224;-59
2022/04/19 13:46:07;;;;;;;3.40;1.80;;;23.70;26.00;;;;;;4990177;28;20859;-60
2022/04/19 13:48:36;;;;;;;3.77;1.70;;;23.70;26.10;;;;;;5009280;28;20176;-60